Lawndale, IL (61751)

3:17 AM CDT on May 05, 2015 (GMT -0500)
Lincoln | | Change Station
CLOSE
Current Station
Airport
Location: Lincoln,
Elevation: 597 ft
Nearby Weather Stations

Elev 597 ft 40.16 °N, 89.34 °W | Updated 22 minutes ago

Overcast
Overcast
65 °F
Feels Like 65 °F
N
6
Wind Variable Wind from SSE

Today
High -- | Low -- °F
--% Chance of Precip.
Yesterday
High -- | Low -- °F
Precip. -- in
5:52 AM 7:56 PM
Full, 99% visible
Pressure 30.09 in
Visibility 10.0 miles
Clouds Scattered Clouds 7000 ft
Mostly Cloudy 8500 ft
Mostly Cloudy 12000 ft
Dew Point 61 °F
Humidity 86%
Rainfall 0.00 in
Snow Depth Not available.
UV 0 out of 12
Pollen 9.00 out of 12
Air Quality Not available.
Flu Activity Local Activity
METAR KAAA 050755Z AUTO 16005KT 10SM SCT070 BKN085 BKN120 19/16 A3009 RMK AO2 LTG DSNT NE AND W T01850162

More Conditions Fewer Conditions

Pressure 30.09 in
Visibility 10.0 miles
Clouds Scattered Clouds 7000 ft
Mostly Cloudy 8500 ft
Mostly Cloudy 12000 ft
Dew Point 61 °F
Humidity 86%
Rainfall 0.00 in
Snow Depth Not available.
UV 0 out of 12
Pollen 9.00 out of 12
Air Quality Not available.
Flu Activity Local Activity
METAR KAAA 050755Z AUTO 16005KT 10SM SCT070 BKN085 BKN120 19/16 A3009 RMK AO2 LTG DSNT NE AND W T01850162

More Conditions Fewer Conditions

Nepal has a long way to go to dig out and rebuild from a devastating earthquake. We have teamed up with several charities and organizations to make contributing to the relief effort as easy as possible.
How you can help: Portlight Strategies | Red Cross

10-Day Weather Forecast

Almanac

Astronomy

May. 05, 2015 Rise Set
Actual Time
Civil Twilight
Nautical Twilight
Astronomical Twilight
Moon
Length of Visible Light
Length of Day
Tomorrow will be .
, % of the Moon is Illuminated

Today's Extremes

State Highs State Lows

Community

WunderPhotos

Upload Photos

1,818,814 photos uploaded!

WunderBlogs® & News

Nearby

Air Quality

  Air Quality AQ Index Pollutant
Not available.

Snow Depth

Station Depth Elevation

Earthquake Activity

City Distance Mag. Time & Date
Minimum magnitude displayed is 2.5.

Coastal Water Temperatures

Place Temperature

Stations

Nearby Weather Stations

Station Location Temp. Windchill Dew Point Humidity Wind Precip. Elev Updated Type